KLUL

Hesler-Noble Field Airport

Laurel, Mississippi, USA
METAR KLUL 201335Z AUTO 33009KT OVC019 01/M03 A3022 RMK AO2 T00061030
Observed Flight Rules
Jan-20 @ 13:35 UTC (18 minutes ago)
Wind Clouds
330° at 9 knots
  • Overcast at 1,900' AGL
Temperatures Readings
Current 1°C / 34°F
Dewpoint -3°C / 27°F
Humidity 75%
Altimeter 30.22" Hg
Pressure 1023.42 hPa
Elevation 73
METAR KLUL 201335Z AUTO 33009KT OVC019 01/M03 A3022 RMK AO2 T00061030
Observed Flight Rules
Jan-20 @ 13:35 UTC
(18 minutes ago)
Wind
330° at 9 knots
Clouds
  • Overcast at 1,900' AGL
Temperature Dewpoint
1°C / 34°F -3°C / 27°F
Humidity Altimeter Pressure
75% 30.22" Hg 1023.42 hPa